createdAt,value
2018-01-08T00:04:27.006Z,0
2018-01-08T00:09:26.906Z,0
2018-01-08T00:14:26.834Z,0
2018-01-08T00:19:26.762Z,0
2018-01-08T00:24:26.684Z,0
2018-01-08T00:29:26.824Z,0
2018-01-08T00:34:26.594Z,0
2018-01-08T00:39:26.324Z,0
2018-01-08T00:44:26.398Z,0
2018-01-08T00:49:26.334Z,0
2018-01-08T00:54:26.299Z,0
2018-01-08T00:59:26.208Z,0
2018-01-08T01:04:26.084Z,0
2018-01-08T01:09:26.020Z,0
2018-01-08T01:14:25.944Z,0
2018-01-08T01:19:25.606Z,0
2018-01-08T01:24:25.798Z,0
2018-01-08T01:29:25.708Z,0
2018-01-08T01:34:25.622Z,0
2018-01-08T01:39:25.540Z,0
2018-01-08T01:44:25.460Z,0
2018-01-08T01:49:25.391Z,0
2018-01-08T01:54:25.331Z,0
2018-01-08T01:59:25.222Z,0
2018-01-08T02:04:25.167Z,0
2018-01-08T02:09:25.057Z,0
2018-01-08T02:14:24.972Z,0
2018-01-08T02:19:24.903Z,0
2018-01-08T02:24:24.808Z,0
2018-01-08T02:29:24.736Z,0
2018-01-08T02:34:24.640Z,0
2018-01-08T02:39:24.628Z,0
2018-01-08T02:44:24.511Z,0
2018-01-08T02:49:24.403Z,0
2018-01-08T02:54:24.341Z,0
2018-01-08T02:59:24.226Z,0
2018-01-08T03:04:24.147Z,0
2018-01-08T03:09:24.078Z,0
2018-01-08T03:14:24.061Z,0
2018-01-08T03:19:23.913Z,0
2018-01-08T03:24:23.820Z,0
2018-01-08T03:29:23.751Z,0
2018-01-08T03:34:23.659Z,0
2018-01-08T03:39:23.595Z,0
2018-01-08T03:44:23.515Z,0
2018-01-08T03:49:23.471Z,0
2018-01-08T03:54:23.431Z,0
2018-01-08T03:59:23.281Z,0
2018-01-08T04:04:23.199Z,0
2018-01-08T04:09:23.133Z,0
2018-01-08T04:14:23.083Z,0
2018-01-08T04:19:22.994Z,0
2018-01-08T04:24:22.909Z,0
2018-01-08T04:29:22.837Z,0
2018-01-08T04:34:22.756Z,0
2018-01-08T04:39:22.676Z,0
2018-01-08T04:44:22.383Z,0
2018-01-08T04:49:22.521Z,0
2018-01-08T04:54:22.432Z,0
2018-01-08T04:59:22.374Z,0
2018-01-08T05:04:22.295Z,0
2018-01-08T05:09:22.211Z,0
2018-01-08T05:14:22.146Z,0
2018-01-08T05:19:22.054Z,0
2018-01-08T05:24:21.986Z,0
2018-01-08T05:29:21.928Z,0
2018-01-08T05:34:21.830Z,0
2018-01-08T05:39:21.764Z,0
2018-01-08T05:44:21.670Z,0
2018-01-08T05:49:21.589Z,0
2018-01-08T05:54:21.620Z,0
2018-01-08T05:59:21.460Z,0
2018-01-08T06:04:21.342Z,0
2018-01-08T06:09:21.296Z,0
2018-01-08T06:14:21.220Z,0
2018-01-08T06:19:21.266Z,0
2018-01-08T06:24:21.069Z,0
2018-01-08T06:29:20.722Z,0
2018-01-08T06:34:20.886Z,0
2018-01-08T06:39:20.882Z,0
2018-01-08T06:44:20.778Z,0
2018-01-08T06:49:20.686Z,0
2018-01-08T06:54:20.552Z,0
2018-01-08T06:59:20.471Z,0
2018-01-08T07:04:20.519Z,0
2018-01-08T07:09:20.322Z,0
2018-01-08T07:14:20.234Z,0
2018-01-08T07:19:20.174Z,0
2018-01-08T07:24:20.099Z,0
2018-01-08T07:29:20.014Z,0
2018-01-08T07:34:19.947Z,0
2018-01-08T07:39:19.869Z,0
2018-01-08T07:44:19.822Z,0
2018-01-08T07:49:19.700Z,0
2018-01-08T07:54:19.677Z,0
2018-01-08T07:59:19.556Z,0
2018-01-08T08:04:19.275Z,0
2018-01-08T08:09:19.427Z,0
2018-01-08T08:14:19.380Z,0
2018-01-08T08:19:19.263Z,0
2018-01-08T08:24:19.185Z,0
2018-01-08T08:29:19.123Z,0
2018-01-08T08:34:19.109Z,0
2018-01-08T08:39:19.027Z,4
2018-01-08T08:44:18.901Z,0
2018-01-08T08:49:18.852Z,0
2018-01-08T08:54:18.739Z,0
2018-01-08T08:59:18.681Z,0
2018-01-08T09:04:18.663Z,0
2018-01-08T09:09:18.613Z,32
2018-01-08T09:14:18.520Z,40
2018-01-08T09:19:18.422Z,40
2018-01-08T09:24:18.340Z,44
2018-01-08T09:29:18.261Z,44
2018-01-08T09:34:18.178Z,48
2018-01-08T09:39:18.126Z,52
2018-01-08T09:44:18.053Z,52
2018-01-08T09:49:17.972Z,52
2018-01-08T09:54:17.658Z,56
2018-01-08T09:59:17.824Z,56
2018-01-08T10:04:17.760Z,56
2018-01-08T10:09:17.685Z,60
2018-01-08T10:14:17.702Z,64
2018-01-08T10:19:17.543Z,68
2018-01-08T10:24:17.566Z,72
2018-01-08T10:29:17.391Z,76
2018-01-08T10:34:17.469Z,80
2018-01-08T10:39:17.240Z,88
2018-01-08T10:44:17.224Z,96
2018-01-08T10:49:17.201Z,96
2018-01-08T10:54:17.050Z,96
2018-01-08T10:59:16.980Z,108
2018-01-08T11:04:16.869Z,116
2018-01-08T11:09:16.813Z,168
2018-01-08T11:14:16.736Z,188
2018-01-08T11:19:16.669Z,184
2018-01-08T11:24:16.597Z,168
2018-01-08T11:29:16.394Z,192
2018-01-08T11:34:16.457Z,180
2018-01-08T11:39:16.366Z,216
2018-01-08T11:44:16.313Z,216
2018-01-08T11:49:16.236Z,224
2018-01-08T11:54:16.157Z,224
2018-01-08T11:59:16.061Z,208
2018-01-08T12:04:16.091Z,228
2018-01-08T12:09:15.969Z,360
2018-01-08T12:14:15.871Z,468
2018-01-08T12:19:15.782Z,3228
2018-01-08T12:24:15.758Z,9976
2018-01-08T12:29:15.708Z,7380
2018-01-08T12:34:15.567Z,224
2018-01-08T12:39:15.491Z,184
2018-01-08T12:44:15.414Z,268
2018-01-08T12:49:15.371Z,152
2018-01-08T12:54:15.320Z,132
2018-01-08T12:59:15.307Z,124
2018-01-08T13:04:15.124Z,132
2018-01-08T13:09:15.063Z,144
2018-01-08T13:14:15.055Z,172
2018-01-08T13:19:14.916Z,180
2018-01-08T13:24:14.874Z,208
2018-01-08T13:29:14.886Z,160
2018-01-08T13:34:14.694Z,144
2018-01-08T13:39:14.397Z,108
2018-01-08T13:44:14.570Z,104
2018-01-08T13:49:14.582Z,96
2018-01-08T13:54:14.417Z,96
2018-01-08T13:59:14.346Z,96
2018-01-08T14:04:14.354Z,88
2018-01-08T14:09:14.197Z,140
2018-01-08T14:14:14.120Z,100
2018-01-08T14:19:14.040Z,104
2018-01-08T14:24:13.735Z,76
2018-01-08T14:29:13.950Z,72
2018-01-08T14:34:13.844Z,64
2018-01-08T14:39:13.746Z,60
2018-01-08T14:44:13.682Z,52
2018-01-08T14:49:13.649Z,48
2018-01-08T14:54:13.538Z,44
2018-01-08T14:59:13.490Z,36
2018-01-08T15:04:13.410Z,32
2018-01-08T15:09:13.300Z,28
2018-01-08T15:14:13.219Z,24
2018-01-08T15:19:13.158Z,20
2018-01-08T15:24:13.099Z,16
2018-01-08T15:29:13.044Z,12
2018-01-08T15:34:12.676Z,8
2018-01-08T15:39:12.862Z,8
2018-01-08T15:44:12.784Z,4
2018-01-08T15:49:12.719Z,4
2018-01-08T15:54:12.636Z,0
2018-01-08T15:59:12.657Z,0
2018-01-08T16:04:12.563Z,4
2018-01-08T16:09:12.395Z,4
2018-01-08T16:14:12.325Z,0
2018-01-08T16:19:12.258Z,0
2018-01-08T16:24:12.232Z,0
2018-01-08T16:29:12.115Z,0
2018-01-08T16:34:11.809Z,0
2018-01-08T16:39:11.971Z,0
2018-01-08T16:44:11.879Z,0
2018-01-08T16:49:11.818Z,0
2018-01-08T16:54:11.750Z,0
2018-01-08T16:59:11.682Z,0
2018-01-08T17:04:11.603Z,0
2018-01-08T17:09:11.547Z,0
2018-01-08T17:14:11.456Z,0
2018-01-08T17:19:11.399Z,0
2018-01-08T17:24:11.403Z,0
2018-01-08T17:29:11.279Z,0
2018-01-08T17:34:11.171Z,0
2018-01-08T17:39:11.104Z,0
2018-01-08T17:44:11.025Z,0
2018-01-08T17:49:10.957Z,0
2018-01-08T17:54:10.875Z,0
2018-01-08T17:59:10.865Z,0
2018-01-08T18:04:10.494Z,0
2018-01-08T18:09:10.668Z,0
2018-01-08T18:14:10.688Z,0
2018-01-08T18:19:10.541Z,0
2018-01-08T18:24:10.464Z,0
2018-01-08T18:29:10.398Z,0
2018-01-08T18:34:10.361Z,0
2018-01-08T18:39:10.330Z,0
2018-01-08T18:44:10.332Z,0
2018-01-08T18:49:10.246Z,0
2018-01-08T18:54:10.046Z,0
2018-01-08T18:59:10.004Z,0
2018-01-08T19:04:09.976Z,0
2018-01-08T19:09:09.607Z,0
2018-01-08T19:14:09.916Z,0
2018-01-08T19:19:09.861Z,0
2018-01-08T19:24:09.653Z,0
2018-01-08T19:29:09.582Z,0
2018-01-08T19:34:09.582Z,0
2018-01-08T19:39:09.460Z,0
2018-01-08T19:44:09.415Z,0
2018-01-08T19:49:09.426Z,0
2018-01-08T19:54:09.336Z,0
2018-01-08T19:59:09.183Z,0
2018-01-08T20:04:09.106Z,0
2018-01-08T20:09:09.160Z,0
2018-01-08T20:14:08.995Z,0
2018-01-08T20:19:08.941Z,0
2018-01-08T20:24:08.708Z,0
2018-01-08T20:29:08.785Z,0
2018-01-08T20:34:08.705Z,0
2018-01-08T20:39:08.651Z,0
2018-01-08T20:44:08.569Z,0
2018-01-08T20:49:08.508Z,0
2018-01-08T20:54:08.585Z,0
2018-01-08T20:59:08.383Z,0
2018-01-08T21:04:08.322Z,0
2018-01-08T21:09:08.221Z,0
2018-01-08T21:14:08.177Z,0
2018-01-08T21:19:08.135Z,0
2018-01-08T21:24:08.053Z,0
2018-01-08T21:29:08.024Z,0
2018-01-08T21:34:07.893Z,0
2018-01-08T21:39:07.819Z,0
2018-01-08T21:44:07.776Z,0
2018-01-08T21:49:07.687Z,4
2018-01-08T21:54:07.388Z,4
2018-01-08T21:59:07.298Z,4
2018-01-08T22:04:07.487Z,4
2018-01-08T22:09:07.425Z,4
2018-01-08T22:14:07.349Z,4
2018-01-08T22:19:07.325Z,4
2018-01-08T22:24:07.212Z,4
2018-01-08T22:29:07.292Z,0
2018-01-08T22:34:07.080Z,0
2018-01-08T22:39:07.000Z,0
2018-01-08T22:44:06.939Z,0
2018-01-08T22:49:06.871Z,0
2018-01-08T22:54:06.792Z,0
2018-01-08T22:59:06.726Z,0
2018-01-08T23:04:06.650Z,0
2018-01-08T23:09:06.674Z,0
2018-01-08T23:14:06.513Z,0
2018-01-08T23:19:06.470Z,0
2018-01-08T23:24:06.388Z,0
2018-01-08T23:29:06.317Z,0
2018-01-08T23:34:06.251Z,0
2018-01-08T23:39:06.279Z,0
2018-01-08T23:44:06.090Z,0
2018-01-08T23:49:05.998Z,0
2018-01-08T23:54:05.933Z,0
2018-01-08T23:59:05.863Z,0
